Time;durP1;ratioP1;P1;durP2;ratioP2;P2;SDS_P1;SDS_P2;PMS_P1;PMS_P2;Temp;Humidity;BMP_temperature;BMP_pressure;BME280_temperature;BME280_humidity;BME280_pressure;Samples;Min_cycle;Max_cycle;Signal;HPM_P1;HPM_P2
2022/10/31 00:00:48;;;;;;;8.20;5.25;;;;;;;14.63;80.66;99146.09;5043678;27;104013;-73
2022/10/31 00:03:17;;;;;;;8.50;5.60;;;;;;;14.70;80.53;99146.44;5044047;27;103696;-73
2022/10/31 00:05:47;;;;;;;4.72;4.15;;;;;;;14.87;79.91;99140.56;5045852;27;102693;-73
2022/10/31 00:08:15;;;;;;;7.87;5.40;;;;;;;14.84;79.23;99148.81;5045517;27;103054;-73
2022/10/31 00:10:45;;;;;;;10.10;6.03;;;;;;;14.34;80.89;99144.97;5027144;27;102802;-73
2022/10/31 00:13:14;;;;;;;8.07;5.25;;;;;;;14.60;80.81;99140.16;5045354;27;103987;-73
2022/10/31 00:15:42;;;;;;;6.22;5.57;;;;;;;14.70;79.88;99141.97;5052147;27;103241;-73
2022/10/31 00:18:11;;;;;;;9.95;6.22;;;;;;;14.75;79.37;99146.91;5043126;27;102541;-73
2022/10/31 00:20:39;;;;;;;10.67;6.30;;;;;;;14.56;78.95;99138.75;5047212;27;102946;-72
2022/10/31 00:23:07;;;;;;;8.75;6.03;;;;;;;14.37;80.77;99140.22;5043239;27;103377;-72
2022/10/31 00:25:37;;;;;;;5.55;4.63;;;;;;;14.66;80.52;99145.00;5038290;27;104440;-73
2022/10/31 00:28:08;;;;;;;6.32;5.07;;;;;;;14.71;79.22;99146.28;5030647;27;102642;-73
2022/10/31 00:30:36;;;;;;;8.35;5.63;;;;;;;14.09;81.53;99148.69;5035136;27;102709;-73
2022/10/31 00:33:04;;;;;;;8.00;6.28;;;;;;;13.62;84.15;99146.25;5045475;27;103733;-73
2022/10/31 00:35:32;;;;;;;7.85;5.32;;;;;;;13.84;84.80;99143.63;5031867;27;103217;-73
2022/10/31 00:38:00;;;;;;;9.52;6.05;;;;;;;14.06;83.35;99146.31;5030291;27;102624;-73
2022/10/31 00:40:28;;;;;;;6.95;5.05;;;;;;;14.15;82.55;99140.22;5054107;27;102671;-73
2022/10/31 00:42:55;;;;;;;6.18;4.97;;;;;;;14.30;81.80;99144.31;5051268;27;103454;-73
2022/10/31 00:45:25;;;;;;;4.65;4.07;;;;;;;14.42;81.10;99143.38;5027409;27;103283;-73
2022/10/31 00:47:53;;;;;;;5.70;4.63;;;;;;;14.48;80.48;99137.53;5051565;27;102898;-73
2022/10/31 00:50:21;;;;;;;8.32;5.00;;;;;;;14.52;79.55;99154.94;5030167;27;102793;-73
2022/10/31 00:52:49;;;;;;;6.28;4.82;;;;;;;14.38;79.61;99147.25;5047871;27;103321;-73
2022/10/31 00:55:17;;;;;;;4.78;4.10;;;;;;;14.19;81.87;99147.00;5033579;27;104181;-73
2022/10/31 00:57:47;;;;;;;5.43;4.60;;;;;;;14.24;80.74;99147.47;5049359;27;102710;-73
2022/10/31 01:00:15;;;;;;;5.80;4.57;;;;;;;14.17;79.38;99143.63;5029919;27;104021;-73
2022/10/31 01:02:45;;;;;;;6.80;4.35;;;;;;;14.02;81.90;99142.19;5034183;27;105115;-73
2022/10/31 01:05:13;;;;;;;6.07;4.55;;;;;;;14.01;81.28;99137.81;5026822;27;104197;-73
2022/10/31 01:07:42;;;;;;;8.00;4.90;;;;;;;14.10;81.14;99142.41;5026082;27;102694;-73
2022/10/31 01:10:10;;;;;;;6.23;4.87;;;;;;;13.99;81.23;99138.91;5035045;27;103729;-73
2022/10/31 01:12:38;;;;;;;6.05;4.35;;;;;;;14.12;81.46;99143.13;5030311;27;103398;-73
2022/10/31 01:15:08;;;;;;;5.47;4.53;;;;;;;14.17;81.06;99142.78;5032905;27;104035;-73
2022/10/31 01:17:35;;;;;;;9.83;5.80;;;;;;;13.44;83.62;99143.25;5047177;27;102943;-73
2022/10/31 01:20:06;;;;;;;9.98;6.32;;;;;;;12.98;88.09;99139.69;5048380;27;104311;-73
2022/10/31 01:22:34;;;;;;;10.82;6.80;;;;;;;12.77;91.06;99136.84;5053310;27;103607;-73
2022/10/31 01:25:03;;;;;;;10.57;7.27;;;;;;;12.80;92.65;99137.44;5031008;27;103880;-73
2022/10/31 01:27:32;;;;;;;7.88;6.18;;;;;;;13.25;91.15;99143.78;5025025;27;102941;-72
2022/10/31 01:29:59;;;;;;;9.17;6.97;;;;;;;13.44;88.81;99143.25;5055360;27;104348;-73
2022/10/31 01:32:28;;;;;;;11.57;7.78;;;;;;;13.23;89.92;99132.44;5030017;27;103456;-73
2022/10/31 01:34:56;;;;;;;9.85;6.57;;;;;;;13.64;89.32;99133.75;5032849;27;103354;-73
2022/10/31 01:37:25;;;;;;;11.82;8.27;;;;;;;13.25;91.71;99140.28;5044688;27;102645;-72
2022/10/31 01:39:53;;;;;;;12.32;8.00;;;;;;;13.26;92.82;99139.34;5027022;27;102875;-73
2022/10/31 01:42:22;;;;;;;13.00;8.37;;;;;;;13.40;91.78;99136.47;5035503;27;104188;-73
2022/10/31 01:44:57;;;;;;;11.23;8.05;;;;;;;13.41;91.61;99135.53;5033294;27;103430;-72
2022/10/31 01:47:38;;;;;;;10.27;7.87;;;;;;;13.58;91.35;99134.22;5038910;27;102904;-73
2022/10/31 01:50:13;;;;;;;13.23;8.00;;;;;;;13.47;93.10;99131.53;5021773;27;102635;-73
2022/10/31 01:52:45;;;;;;;12.43;7.07;;;;;;;13.82;90.83;99130.47;5045057;27;103364;-73
2022/10/31 01:55:17;;;;;;;15.88;9.25;;;;;;;13.66;91.21;99126.50;5022328;27;103188;-73
2022/10/31 01:57:49;;;;;;;13.57;8.43;;;;;;;13.65;92.32;99130.09;5045024;27;102775;-73
2022/10/31 02:00:18;;;;;;;14.52;8.52;;;;;;;13.68;91.31;99120.09;5040171;27;102604;-72
2022/10/31 02:02:47;;;;;;;11.05;7.43;;;;;;;13.91;91.10;99126.25;5041083;27;103315;-72
2022/10/31 02:05:18;;;;;;;10.07;7.72;;;;;;;13.97;90.54;99127.56;5037161;27;103269;-73
2022/10/31 02:07:54;;;;;;;7.20;6.35;;;;;;;14.17;89.69;99119.72;5030294;27;102708;-73
2022/10/31 02:10:29;;;;;;;6.68;5.30;;;;;;;14.40;87.67;99118.72;5029159;27;103647;-72
2022/10/31 02:13:00;;;;;;;7.35;6.07;;;;;;;14.45;84.50;99121.00;5025462;27;105137;-74
2022/10/31 02:15:30;;;;;;;6.75;5.68;;;;;;;14.42;82.21;99113.28;5032881;27;103278;-73
2022/10/31 02:17:59;;;;;;;5.35;4.75;;;;;;;14.43;81.81;99123.78;5034221;27;102732;-73
2022/10/31 02:20:33;;;;;;;7.53;5.88;;;;;;;14.45;80.63;99132.50;5029417;27;104020;-73
2022/10/31 02:23:52;;;;;;;7.20;5.70;;;;;;;14.44;80.60;99122.81;5023759;27;104445;-73
2022/10/31 02:26:45;;;;;;;7.07;4.70;;;;;;;14.44;79.68;99130.81;5010851;27;103180;-73
2022/10/31 02:29:41;;;;;;;5.85;4.90;;;;;;;14.42;79.59;99124.78;5025979;27;102590;-73
2022/10/31 02:32:15;;;;;;;8.63;6.03;;;;;;;14.24;78.43;99134.19;5031089;27;102710;-73
2022/10/31 02:34:52;;;;;;;9.25;6.28;;;;;;;14.12;79.88;99129.84;5036644;27;105088;-73
2022/10/31 02:37:26;;;;;;;6.43;5.47;;;;;;;14.14;80.08;99132.41;5030553;27;103163;-73
2022/10/31 02:40:02;;;;;;;5.88;4.95;;;;;;;14.22;79.78;99125.50;5027270;27;102642;-73
2022/10/31 02:42:54;;;;;;;6.43;5.45;;;;;;;14.17;79.56;99127.69;5030687;27;102784;-73
2022/10/31 02:45:28;;;;;;;7.57;6.20;;;;;;;13.83;80.14;99126.88;5045450;27;104108;-73
2022/10/31 02:48:02;;;;;;;8.13;6.72;;;;;;;13.83;81.74;99129.53;5026696;27;103401;-73
2022/10/31 02:50:34;;;;;;;6.68;5.40;;;;;;;13.97;81.66;99125.78;5032840;27;102645;-73
2022/10/31 02:53:04;;;;;;;7.82;5.72;;;;;;;14.01;80.68;99126.38;5047694;27;104305;-73
2022/10/31 02:55:48;;;;;;;6.78;5.72;;;;;;;13.91;80.87;99123.59;5029969;27;103379;-74
2022/10/31 02:58:20;;;;;;;6.97;5.57;;;;;;;13.99;80.30;99120.31;5046413;27;103305;-74
2022/10/31 03:00:59;;;;;;;7.70;5.73;;;;;;;13.91;80.31;99124.44;5028064;27;102693;-73
2022/10/31 03:03:36;;;;;;;5.35;4.85;;;;;;;13.90;79.91;99121.91;5035486;27;102808;-74
2022/10/31 03:06:14;;;;;;;8.40;5.75;;;;;;;13.80;80.55;99119.13;5028441;27;103138;-73
2022/10/31 03:08:51;;;;;;;9.47;6.43;;;;;;;13.45;81.93;99118.38;5028926;27;105128;-73
2022/10/31 03:11:24;;;;;;;11.90;7.10;;;;;;;12.71;85.59;99116.94;5049831;27;102671;-73
2022/10/31 03:14:01;;;;;;;10.57;7.35;;;;;;;12.84;85.84;99113.38;5032415;27;104099;-74
2022/10/31 03:16:40;;;;;;;10.35;7.32;;;;;;;12.69;88.22;99112.69;5026152;27;103240;-74
2022/10/31 03:19:13;;;;;;;7.80;5.78;;;;;;;12.97;88.54;99122.94;5031949;27;103284;-73
2022/10/31 03:21:45;;;;;;;5.13;4.63;;;;;;;13.48;86.01;99125.25;5053422;27;102640;-74
2022/10/31 03:24:15;;;;;;;5.87;4.77;;;;;;;13.73;84.35;99119.72;5046028;27;103863;-73
2022/10/31 03:26:50;;;;;;;7.88;6.85;;;;;;;13.46;81.98;99114.78;5028211;27;104205;-72
2022/10/31 03:29:23;;;;;;;8.77;6.00;;;;;;;13.34;81.84;99119.22;5034773;27;104420;-73
2022/10/31 03:31:55;;;;;;;5.65;5.05;;;;;;;13.48;82.67;99125.25;5050620;27;102651;-73
2022/10/31 03:34:25;;;;;;;7.60;5.88;;;;;;;13.51;81.30;99127.66;5039308;27;102584;-73
2022/10/31 03:36:57;;;;;;;8.48;6.35;;;;;;;12.88;82.62;99123.66;5057449;27;104336;-73
2022/10/31 03:39:25;;;;;;;7.50;5.72;;;;;;;12.99;84.30;99126.34;5034456;27;103388;-74
2022/10/31 03:41:58;;;;;;;7.18;5.05;;;;;;;13.32;82.98;99129.09;5034924;27;102890;-72
2022/10/31 03:44:28;;;;;;;6.20;5.20;;;;;;;13.36;82.55;99122.59;5035033;27;104090;-73
2022/10/31 03:47:01;;;;;;;10.15;6.60;;;;;;;12.84;83.31;99127.47;5026779;27;104186;-73
2022/10/31 03:49:32;;;;;;;7.32;5.45;;;;;;;13.10;84.28;99131.72;5045405;27;103321;-73
2022/10/31 03:52:06;;;;;;;7.00;5.80;;;;;;;13.43;82.47;99130.06;5032621;27;102748;-73
2022/10/31 03:54:41;;;;;;;6.15;4.63;;;;;;;13.50;81.67;99126.00;5048613;27;103461;-73
2022/10/31 03:57:19;;;;;;;9.95;6.70;;;;;;;13.25;81.62;99129.66;5024147;27;103455;-73
2022/10/31 03:59:52;;;;;;;8.02;5.95;;;;;;;13.42;81.48;99123.09;5032756;27;103632;-73
2022/10/31 04:02:23;;;;;;;7.17;5.10;;;;;;;13.45;81.24;99117.53;5034175;27;102631;-72
2022/10/31 04:04:53;;;;;;;5.53;4.30;;;;;;;13.57;80.89;99122.75;5036584;27;104153;-72
2022/10/31 04:07:24;;;;;;;6.30;5.30;;;;;;;13.64;80.10;99123.13;5030803;27;104165;-73
2022/10/31 04:09:53;;;;;;;6.57;5.33;;;;;;;13.30;81.49;99125.69;5031391;27;103574;-72
2022/10/31 04:12:24;;;;;;;7.67;5.80;;;;;;;13.29;80.83;99124.03;5027042;27;102677;-72
2022/10/31 04:15:08;;;;;;;6.18;4.90;;;;;;;13.47;81.04;99120.94;5027698;27;102780;-72
2022/10/31 04:17:41;;;;;;;6.35;5.10;;;;;;;13.49;80.85;99119.00;5033288;27;102740;-72
2022/10/31 04:20:11;;;;;;;9.27;5.90;;;;;;;13.39;80.24;99116.19;5031552;27;105220;-72
2022/10/31 04:22:39;;;;;;;8.52;6.18;;;;;;;12.81;83.25;99106.50;5028585;27;102727;-72
2022/10/31 04:25:08;;;;;;;10.88;6.53;;;;;;;12.44;85.74;99124.25;5029679;27;104123;-72
2022/10/31 04:27:38;;;;;;;9.20;6.63;;;;;;;11.91;90.21;99114.03;5030486;27;103263;-73
2022/10/31 04:30:09;;;;;;;16.47;10.97;;;;;;;12.04;91.76;99115.69;5023891;27;103341;-73
2022/10/31 04:32:39;;;;;;;8.63;7.50;;;;;;;12.74;89.41;99105.28;5031332;27;103043;-74
2022/10/31 04:35:08;;;;;;;7.45;5.57;;;;;;;12.95;86.59;99108.94;5021133;27;103097;-74
2022/10/31 04:37:37;;;;;;;10.57;7.43;;;;;;;12.19;87.86;99104.03;5023215;27;104320;-73
2022/10/31 04:40:06;;;;;;;9.07;7.15;;;;;;;12.39;88.62;99109.66;5041659;27;103417;-73
2022/10/31 04:42:42;;;;;;;9.88;6.20;;;;;;;12.58;87.84;99100.25;5042115;27;102816;-73
2022/10/31 04:45:11;;;;;;;6.13;4.80;;;;;;;12.93;86.06;99097.63;5039960;27;104192;-73
2022/10/31 04:47:45;;;;;;;7.60;6.07;;;;;;;12.72;82.57;99100.06;5006261;27;105355;-72
2022/10/31 04:50:13;;;;;;;5.10;4.60;;;;;;;13.00;83.38;99090.88;5039372;27;103601;-72
2022/10/31 04:52:43;;;;;;;9.63;5.43;;;;;;;13.01;82.29;99087.28;5018548;27;103229;-73
2022/10/31 04:55:14;;;;;;;5.78;4.95;;;;;;;13.10;82.54;99086.63;5021322;27;102763;-73
2022/10/31 04:58:00;;;;;;;6.30;5.67;;;;;;;12.94;81.88;99091.34;5040295;27;103758;-72
2022/10/31 05:00:29;;;;;;;10.25;6.10;;;;;;;12.94;83.15;99091.34;5020423;27;103291;-73
2022/10/31 05:02:58;;;;;;;6.82;6.07;;;;;;;12.76;83.61;99077.69;5034354;27;102587;-73
2022/10/31 05:05:29;;;;;;;6.67;4.57;;;;;;;13.00;83.62;99084.72;5031277;27;103057;-74
2022/10/31 05:08:01;;;;;;;6.20;4.70;;;;;;;13.19;82.69;99080.56;5020091;27;105286;-73
2022/10/31 05:10:32;;;;;;;6.05;4.75;;;;;;;13.20;81.29;99076.97;5023551;27;103143;-74
2022/10/31 05:13:02;;;;;;;9.25;6.40;;;;;;;13.01;80.52;99076.66;5028250;27;102623;-74
2022/10/31 05:15:40;;;;;;;8.55;6.38;;;;;;;12.75;81.49;99073.31;5039142;27;102645;-73
2022/10/31 05:18:27;;;;;;;11.23;6.38;;;;;;;12.56;82.68;99078.31;5041354;27;103188;-74
2022/10/31 05:21:04;;;;;;;6.82;5.63;;;;;;;12.70;83.44;99075.47;5041476;27;102722;-74
2022/10/31 05:23:37;;;;;;;13.63;6.75;;;;;;;12.59;84.05;99079.91;5042826;27;102773;-73
2022/10/31 05:26:07;;;;;;;9.55;6.80;;;;;;;12.10;87.93;99078.19;5026297;27;102788;-74
2022/10/31 05:28:37;;;;;;;7.80;6.60;;;;;;;12.34;88.36;99080.00;5022712;27;105106;-74
2022/10/31 05:31:05;;;;;;;11.10;6.87;;;;;;;12.25;89.04;99078.88;5028591;27;105906;-74
2022/10/31 05:33:33;;;;;;;9.60;6.55;;;;;;;12.29;89.87;99082.16;5048303;27;102647;-73
2022/10/31 05:36:19;;;;;;;8.52;5.90;;;;;;;12.57;89.38;99076.53;5038996;27;103777;-74
2022/10/31 05:39:14;;;;;;;8.15;6.35;;;;;;;12.84;87.28;99070.94;5042188;27;103112;-73
2022/10/31 05:41:47;;;;;;;8.65;5.63;;;;;;;12.96;86.29;99076.19;5027479;27;104202;-72
2022/10/31 05:44:25;;;;;;;6.78;4.97;;;;;;;13.11;85.23;99064.41;5026023;27;102860;-72
2022/10/31 05:47:01;;;;;;;7.60;5.80;;;;;;;13.16;83.76;99066.72;5026725;27;102741;-71
2022/10/31 05:49:52;;;;;;;6.82;5.22;;;;;;;12.96;83.98;99060.25;5042165;27;104027;-71
2022/10/31 05:52:35;;;;;;;7.30;5.10;;;;;;;13.10;83.16;99062.75;5041464;27;103160;-73
2022/10/31 05:55:17;;;;;;;5.85;5.03;;;;;;;12.97;83.77;99056.63;5021445;27;103839;-71
2022/10/31 05:58:02;;;;;;;9.63;6.38;;;;;;;12.76;83.60;99060.91;5022728;27;103871;-73
2022/10/31 06:00:31;;;;;;;8.27;5.80;;;;;;;12.68;85.74;99061.50;5021369;27;104167;-72
2022/10/31 06:03:08;;;;;;;7.03;5.18;;;;;;;12.89;84.86;99066.97;5029070;27;103374;-73
2022/10/31 06:05:56;;;;;;;5.57;4.15;;;;;;;13.11;84.19;99069.72;5016158;27;102775;-73
2022/10/31 06:08:32;;;;;;;8.70;5.75;;;;;;;12.93;83.63;99063.16;5025089;27;102855;-73
2022/10/31 06:11:06;;;;;;;8.73;5.32;;;;;;;12.63;86.45;99060.97;5028261;27;104716;-73
2022/10/31 06:14:03;;;;;;;6.17;4.57;;;;;;;12.90;85.29;99066.03;4996462;27;103444;-77
2022/10/31 06:16:50;;;;;;;8.82;5.13;;;;;;;12.78;84.62;99064.28;5027040;27;102912;-75
2022/10/31 06:19:36;;;;;;;9.90;5.85;;;;;;;12.68;84.49;99058.00;5045627;27;102731;-74
2022/10/31 06:22:05;;;;;;;11.47;6.13;;;;;;;12.62;85.64;99059.31;5029357;27;105260;-75
2022/10/31 06:24:33;;;;;;;6.00;4.20;;;;;;;12.92;84.57;99056.13;5039602;27;103241;-74
2022/10/31 06:27:02;;;;;;;5.70;4.63;;;;;;;13.09;83.81;99061.03;5045278;27;102822;-75
2022/10/31 06:29:31;;;;;;;4.30;3.90;;;;;;;13.25;83.02;99060.69;5034234;27;103712;-75
2022/10/31 06:32:06;;;;;;;5.80;4.60;;;;;;;13.36;82.28;99060.72;5029946;27;103644;-75
2022/10/31 06:34:39;;;;;;;4.57;3.80;;;;;;;13.46;82.08;99060.84;5028988;27;103380;-75
2022/10/31 06:37:09;;;;;;;5.87;4.03;;;;;;;13.55;81.61;99060.13;5027645;27;103077;-75
2022/10/31 06:39:39;;;;;;;5.57;4.90;;;;;;;13.49;82.19;99060.59;5027227;27;103707;-75
2022/10/31 06:42:11;;;;;;;4.88;4.28;;;;;;;13.59;82.73;99066.84;5028880;27;103828;-75
2022/10/31 06:44:39;;;;;;;8.65;4.97;;;;;;;13.61;82.71;99065.81;5035306;27;104325;-75
2022/10/31 06:47:42;;;;;;;6.28;5.38;;;;;;;13.53;83.51;99068.19;5024846;27;102628;-75
2022/10/31 06:50:34;;;;;;;6.10;4.70;;;;;;;13.85;82.87;99063.00;5030030;27;102785;-75
2022/10/31 06:53:02;;;;;;;8.02;5.03;;;;;;;14.04;82.31;99068.50;5034235;27;103284;-75
2022/10/31 06:55:31;;;;;;;6.28;4.50;;;;;;;14.14;81.72;99069.47;5032196;27;103617;-75
2022/10/31 06:58:01;;;;;;;7.30;4.55;;;;;;;14.28;81.45;99071.00;5025623;27;102979;-75
2022/10/31 07:00:33;;;;;;;8.02;4.40;;;;;;;14.53;80.60;99073.38;5032188;27;102743;-75
2022/10/31 07:03:10;;;;;;;5.00;4.40;;;;;;;14.63;80.16;99068.13;5049344;27;103729;-75
2022/10/31 07:05:38;;;;;;;6.90;4.50;;;;;;;14.75;79.20;99075.09;5034390;27;103188;-75
2022/10/31 07:08:09;;;;;;;5.68;4.32;;;;;;;14.85;79.63;99076.84;5025812;27;102688;-74
2022/10/31 07:10:38;;;;;;;6.97;4.28;;;;;;;14.85;79.01;99081.34;5030071;27;104231;-74
2022/10/31 07:13:13;;;;;;;5.57;4.00;;;;;;;14.93;78.78;99071.72;5034282;27;103262;-73
2022/10/31 07:15:46;;;;;;;6.32;4.60;;;;;;;14.95;78.79;99072.47;5021203;27;105162;-75
2022/10/31 07:18:14;;;;;;;5.68;4.30;;;;;;;15.17;77.95;99076.81;5027959;27;103113;-75
2022/10/31 07:20:42;;;;;;;7.22;4.95;;;;;;;14.96;79.15;99081.28;5052664;27;102712;-75
2022/10/31 07:23:12;;;;;;;6.27;4.33;;;;;;;15.25;78.24;99079.66;5028908;27;104051;-75
2022/10/31 07:25:42;;;;;;;5.25;4.35;;;;;;;15.52;76.90;99076.47;5027212;27;103361;-75
2022/10/31 07:28:19;;;;;;;6.53;4.43;;;;;;;15.41;76.74;99081.84;5023914;27;102994;-75
2022/10/31 07:30:52;;;;;;;7.03;5.40;;;;;;;15.00;77.79;99085.38;5029615;27;103972;-75
2022/10/31 07:33:21;;;;;;;7.28;4.70;;;;;;;15.18;78.86;99083.81;5032157;27;103291;-75
2022/10/31 07:36:27;;;;;;;7.67;5.00;;;;;;;15.21;78.50;99083.56;5002022;28;103253;-76
2022/10/31 07:39:02;;;;;;;4.05;3.63;;;;;;;15.46;78.05;99083.19;4986909;28;102719;-76
2022/10/31 07:41:31;;;;;;;5.00;3.47;;;;;;;15.76;76.96;99078.81;5017447;27;103917;-75
2022/10/31 07:44:00;;;;;;;6.78;4.45;;;;;;;15.82;76.26;99076.47;5029690;27;105107;-76
2022/10/31 07:46:46;;;;;;;8.07;4.70;;;;;;;15.55;77.03;99076.22;5049658;27;103169;-76
2022/10/31 07:49:37;;;;;;;5.72;4.28;;;;;;;15.78;76.14;99082.19;5043237;27;102900;-76
2022/10/31 07:52:25;;;;;;;6.18;4.25;;;;;;;15.77;76.47;99080.50;5047545;27;103931;-75
2022/10/31 07:55:11;;;;;;;7.00;4.95;;;;;;;15.58;76.51;99076.78;5047559;27;104530;-75
2022/10/31 07:57:39;;;;;;;8.02;4.93;;;;;;;15.76;76.88;99078.81;5032700;27;104459;-76
2022/10/31 08:00:10;;;;;;;6.53;5.17;;;;;;;15.72;76.59;99077.41;5036403;27;103019;-76
2022/10/31 08:02:41;;;;;;;7.65;5.30;;;;;;;15.98;76.10;99075.94;5043114;27;102671;-75
2022/10/31 08:05:47;;;;;;;8.45;4.80;;;;;;;16.19;74.14;99072.25;4989069;28;104065;-76
2022/10/31 08:08:32;;;;;;;7.75;4.57;;;;;;;15.97;76.25;99063.63;4974256;28;103580;-75
2022/10/31 08:11:05;;;;;;;5.65;4.63;;;;;;;16.29;75.00;99061.56;5004327;27;102808;-76
2022/10/31 08:13:33;;;;;;;5.40;4.60;;;;;;;16.34;75.52;99070.00;5022558;27;102807;-75
2022/10/31 08:16:04;;;;;;;6.35;5.00;;;;;;;16.36;74.62;99073.38;5023817;27;103636;-76
2022/10/31 08:18:37;;;;;;;5.07;4.20;;;;;;;16.57;74.58;99066.13;5030218;27;106004;-75
2022/10/31 08:21:07;;;;;;;6.78;5.28;;;;;;;16.50;75.13;99067.66;5033432;27;102786;-76
2022/10/31 08:23:35;;;;;;;9.32;5.90;;;;;;;16.01;76.16;99083.66;5028223;27;103457;-76
2022/10/31 08:26:05;;;;;;;8.87;5.80;;;;;;;16.04;76.20;99078.91;5029221;27;103298;-76
2022/10/31 08:28:33;;;;;;;5.22;4.38;;;;;;;16.38;75.53;99070.56;5025365;27;105057;-75
2022/10/31 08:31:04;;;;;;;8.13;5.30;;;;;;;16.49;74.53;99067.78;5041431;27;102635;-76
2022/10/31 08:33:41;;;;;;;6.10;4.50;;;;;;;16.57;74.68;99065.28;5053335;27;104494;-75
2022/10/31 08:36:28;;;;;;;8.38;5.15;;;;;;;16.44;75.21;99060.19;5049979;27;103602;-75
2022/10/31 08:39:25;;;;;;;8.73;4.93;;;;;;;16.60;74.55;99057.84;5033209;27;103986;-75
2022/10/31 08:41:53;;;;;;;5.82;4.45;;;;;;;16.72;73.60;99053.22;5026916;27;102701;-74
2022/10/31 08:44:21;;;;;;;9.15;5.18;;;;;;;16.21;74.38;99064.94;5026309;27;103081;-75
2022/10/31 08:46:50;;;;;;;6.95;5.05;;;;;;;15.98;75.31;99057.28;5044447;27;105242;-75
2022/10/31 08:49:18;;;;;;;10.15;5.22;;;;;;;16.48;73.48;99053.59;5051030;27;103335;-75
2022/10/31 08:51:48;;;;;;;6.30;5.00;;;;;;;16.96;72.89;99052.75;5023902;27;103029;-75
2022/10/31 08:54:17;;;;;;;9.20;5.37;;;;;;;17.06;72.81;99050.94;5028216;27;102953;-75
2022/10/31 08:57:13;;;;;;;8.60;5.50;;;;;;;16.69;73.49;99043.69;4967286;27;103223;-75
2022/10/31 08:59:44;;;;;;;5.07;4.45;;;;;;;16.94;73.57;99042.25;5028148;27;105936;-75
2022/10/31 09:02:26;;;;;;;7.65;5.25;;;;;;;17.00;72.51;99033.69;5044764;27;102709;-75
2022/10/31 09:04:59;;;;;;;7.80;5.82;;;;;;;17.03;72.13;99035.22;5040942;27;102852;-75
2022/10/31 09:07:28;;;;;;;8.15;4.60;;;;;;;17.45;71.26;99038.34;5047837;27;103393;-75
2022/10/31 09:09:56;;;;;;;5.47;4.00;;;;;;;17.44;71.80;99034.81;5052653;27;103235;-75
2022/10/31 09:12:24;;;;;;;6.65;4.60;;;;;;;17.66;70.90;99047.00;5026406;27;102635;-75
2022/10/31 09:15:18;;;;;;;10.10;5.88;;;;;;;17.15;72.17;99039.41;5006193;27;102720;-75
2022/10/31 09:17:57;;;;;;;10.23;5.45;;;;;;;17.49;71.00;99048.56;5028361;27;104265;-75
2022/10/31 09:20:39;;;;;;;8.68;5.55;;;;;;;17.65;70.56;99043.50;5032983;27;103467;-75
2022/10/31 09:23:10;;;;;;;8.93;5.60;;;;;;;17.64;69.79;99041.81;5032250;27;102689;-75
2022/10/31 09:25:40;;;;;;;7.97;5.03;;;;;;;17.92;69.46;99029.28;5030315;27;102784;-75
2022/10/31 09:28:32;;;;;;;7.47;5.18;;;;;;;17.68;69.94;99043.22;5039927;27;103162;-75
2022/10/31 09:31:18;;;;;;;7.05;5.57;;;;;;;17.54;70.45;99025.00;5026512;27;105007;-75
2022/10/31 09:34:08;;;;;;;6.85;5.32;;;;;;;17.48;70.80;99025.53;5042724;27;102508;-75
2022/10/31 09:36:35;;;;;;;5.75;4.75;;;;;;;17.85;70.39;99030.91;5048977;27;102839;-75
2022/10/31 09:39:05;;;;;;;9.05;5.60;;;;;;;17.74;69.71;99020.41;5028853;27;103319;-76
2022/10/31 09:41:56;;;;;;;8.75;5.43;;;;;;;17.69;69.98;99018.16;5044115;27;103228;-76
2022/10/31 09:44:34;;;;;;;9.03;5.97;;;;;;;17.15;71.88;99028.72;5025711;27;102901;-75
2022/10/31 09:47:08;;;;;;;11.93;5.85;;;;;;;17.43;71.29;99027.81;5022763;27;102643;-75
2022/10/31 09:50:03;;;;;;;7.20;4.50;;;;;;;17.79;70.19;99020.78;5025226;27;104573;-75
2022/10/31 09:52:34;;;;;;;11.13;6.00;;;;;;;16.94;72.66;99028.06;5035781;27;106158;-75
2022/10/31 09:55:15;;;;;;;10.10;5.97;;;;;;;17.59;71.68;99016.53;5031735;27;102607;-76
2022/10/31 09:57:43;;;;;;;10.77;5.70;;;;;;;17.63;71.53;99018.75;5028922;27;102994;-75
2022/10/31 10:00:17;;;;;;;8.15;5.47;;;;;;;17.67;70.78;99008.59;5039832;27;103958;-75
2022/10/31 10:02:50;;;;;;;7.72;5.10;;;;;;;17.92;70.65;99019.44;5024297;27;103600;-75
2022/10/31 10:05:23;;;;;;;9.35;5.88;;;;;;;17.74;69.44;99015.88;5046876;27;102739;-75
2022/10/31 10:08:00;;;;;;;10.27;5.97;;;;;;;17.61;71.04;99023.41;5024489;27;103672;-75
2022/10/31 10:10:51;;;;;;;12.38;5.55;;;;;;;18.01;69.12;99015.03;5039905;27;104302;-75
2022/10/31 10:14:07;;;;;;;7.70;5.22;;;;;;;18.44;68.26;99017.00;5029071;27;106599;-76
2022/10/31 10:16:48;;;;;;;7.28;5.43;;;;;;;18.67;67.22;99018.22;5041812;27;102716;-75
2022/10/31 10:19:29;;;;;;;9.05;6.32;;;;;;;18.48;67.92;99015.72;5049576;27;102927;-76
2022/10/31 10:22:09;;;;;;;8.73;5.32;;;;;;;18.56;67.66;99007.75;5024333;27;104155;-76
2022/10/31 10:25:05;;;;;;;11.43;6.00;;;;;;;18.73;67.10;99004.22;5030249;27;103985;-76
2022/10/31 10:27:45;;;;;;;10.05;6.05;;;;;;;18.12;67.63;99008.63;5043475;27;102514;-76
2022/10/31 10:30:17;;;;;;;11.32;6.57;;;;;;;17.94;68.40;99005.91;5038118;27;104005;-76
2022/10/31 10:32:47;;;;;;;10.10;6.47;;;;;;;17.27;71.57;99001.69;5042789;27;103349;-76
2022/10/31 10:35:25;;;;;;;7.43;5.00;;;;;;;18.65;68.10;99001.50;5040272;27;103279;-76
2022/10/31 10:38:02;;;;;;;5.35;4.47;;;;;;;19.20;66.36;98990.53;5040299;27;102769;-76
2022/10/31 10:40:30;;;;;;;8.97;6.03;;;;;;;18.57;67.59;98996.06;5047353;27;103989;-76
2022/10/31 10:43:23;;;;;;;8.30;5.60;;;;;;;19.06;66.00;98987.41;5030082;27;104335;-76
2022/10/31 10:48:54;;;;;;;9.33;5.90;;;;;;;19.46;65.40;98988.69;5042673;27;102917;-77
2022/10/31 10:51:24;;;;;;;8.83;6.10;;;;;;;19.00;66.35;98979.19;5043709;27;104101;-76
2022/10/31 10:54:42;;;;;;;9.27;6.00;;;;;;;19.42;66.32;98979.31;5050358;27;103659;-76
2022/10/31 10:57:21;;;;;;;11.93;6.07;;;;;;;18.91;67.18;98974.75;5053138;27;103247;-76
2022/10/31 10:59:49;;;;;;;7.87;4.90;;;;;;;19.58;66.29;98968.66;5050007;27;103123;-76
2022/10/31 11:02:22;;;;;;;9.70;6.30;;;;;;;19.54;65.12;98964.59;5032329;27;103126;-76
2022/10/31 11:04:52;;;;;;;5.03;4.53;;;;;;;19.79;64.91;98962.88;5030108;27;104603;-76
2022/10/31 11:07:20;;;;;;;10.82;5.53;;;;;;;18.97;65.42;98958.09;5053001;27;103261;-76
2022/10/31 11:09:49;;;;;;;6.68;5.30;;;;;;;18.62;69.61;98953.63;5031301;27;102788;-76
2022/10/31 11:12:21;;;;;;;7.28;5.20;;;;;;;19.41;66.34;98948.13;5049698;27;102813;-76
2022/10/31 11:14:53;;;;;;;10.32;6.05;;;;;;;18.70;69.69;98945.66;5052891;27;103354;-76
2022/10/31 11:17:28;;;;;;;8.63;5.38;;;;;;;19.34;66.33;98928.34;5048126;27;103443;-76
2022/10/31 11:20:06;;;;;;;10.98;5.78;;;;;;;19.74;65.62;98925.81;5033776;27;102618;-76
2022/10/31 11:22:34;;;;;;;8.48;5.97;;;;;;;19.02;66.51;98934.34;5048421;27;102685;-75
2022/10/31 11:25:21;;;;;;;11.13;5.90;;;;;;;19.19;66.26;98924.56;5050257;27;103332;-76
2022/10/31 11:28:00;;;;;;;8.47;6.00;;;;;;;19.65;65.57;98926.78;5026475;27;103414;-76
2022/10/31 11:30:28;;;;;;;9.63;6.40;;;;;;;19.68;64.75;98934.50;5048175;27;102628;-76
2022/10/31 11:32:57;;;;;;;10.73;5.97;;;;;;;19.97;64.73;98921.53;5047972;27;102797;-76
2022/10/31 11:35:26;;;;;;;8.48;5.32;;;;;;;20.11;63.71;98918.19;5047475;27;103273;-76
2022/10/31 11:37:58;;;;;;;8.02;5.55;;;;;;;20.39;62.88;98912.53;5047898;27;103174;-76
2022/10/31 11:40:30;;;;;;;12.38;6.35;;;;;;;20.18;64.26;98903.09;5048319;27;102762;-76
2022/10/31 11:42:59;;;;;;;9.90;6.05;;;;;;;19.66;66.72;98901.69;5036790;27;104050;-75
2022/10/31 11:45:32;;;;;;;10.48;6.55;;;;;;;19.39;65.86;98893.88;5051754;27;104110;-76
2022/10/31 11:48:02;;;;;;;12.32;6.30;;;;;;;19.83;64.05;98898.03;5049568;27;102632;-75
2022/10/31 11:50:36;;;;;;;9.53;5.60;;;;;;;20.47;63.05;98891.06;5041025;27;102718;-76
2022/10/31 11:53:15;;;;;;;7.38;5.55;;;;;;;20.69;63.03;98885.00;5043017;27;102918;-75
2022/10/31 11:55:46;;;;;;;9.90;5.97;;;;;;;20.70;62.08;98881.31;5045623;27;103893;-76
2022/10/31 11:58:24;;;;;;;10.15;6.07;;;;;;;20.78;62.50;98878.63;5043976;27;103273;-76
2022/10/31 12:00:55;;;;;;;12.05;5.85;;;;;;;21.03;60.40;98877.53;5048265;27;102726;-76